Time;durP1;ratioP1;P1;durP2;ratioP2;P2;SDS_P1;SDS_P2;PMS_P1;PMS_P2;Temp;Humidity;BMP_temperature;BMP_pressure;BME280_temperature;BME280_humidity;BME280_pressure;Samples;Min_cycle;Max_cycle;Signal;HPM_P1;HPM_P2
2021/05/14 00:00:52;;;;;;;4.53;1.80;;;28.30;37.10;;;;;;5068711;28;20045;-54
2021/05/14 00:03:18;;;;;;;6.22;1.52;;;28.30;37.10;;;;;;5051185;28;20024;-54
2021/05/14 00:05:44;;;;;;;7.90;2.13;;;28.30;37.10;;;;;;5067240;28;20082;-54
2021/05/14 00:08:10;;;;;;;4.25;1.80;;;28.30;37.10;;;;;;5068583;28;20029;-55
2021/05/14 00:10:38;;;;;;;3.53;1.85;;;28.30;37.10;;;;;;5068928;28;20107;-55
2021/05/14 00:13:09;;;;;;;4.63;2.03;;;28.30;37.20;;;;;;5068693;28;20032;-55
2021/05/14 00:15:36;;;;;;;8.90;1.95;;;28.20;37.30;;;;;;5068906;28;20046;-53
2021/05/14 00:18:03;;;;;;;6.32;2.50;;;28.30;37.30;;;;;;5068949;28;20115;-53
2021/05/14 00:20:29;;;;;;;5.18;2.38;;;28.20;37.20;;;;;;5068508;28;20028;-53
2021/05/14 00:22:55;;;;;;;5.28;1.77;;;28.20;37.30;;;;;;5067987;28;20033;-53
2021/05/14 00:25:21;;;;;;;5.38;1.80;;;28.20;37.30;;;;;;5068600;28;20377;-53
2021/05/14 00:27:48;;;;;;;3.65;1.77;;;28.20;37.30;;;;;;5068886;28;20071;-53
2021/05/14 00:30:15;;;;;;;6.82;1.92;;;28.20;37.30;;;;;;5068906;28;20072;-55
2021/05/14 00:32:41;;;;;;;5.90;2.10;;;28.20;37.40;;;;;;5068898;28;20038;-53
2021/05/14 00:35:08;;;;;;;6.82;1.88;;;28.20;37.40;;;;;;5069234;28;20037;-53
2021/05/14 00:37:35;;;;;;;4.88;1.73;;;28.10;38.10;;;;;;5072057;28;20064;-53
2021/05/14 00:40:01;;;;;;;6.35;1.77;;;28.10;37.50;;;;;;5071621;28;20101;-53
2021/05/14 00:42:27;;;;;;;7.57;2.15;;;28.10;37.50;;;;;;5072480;28;20419;-53
2021/05/14 00:44:53;;;;;;;6.03;1.90;;;28.10;37.50;;;;;;5072251;28;20083;-53
2021/05/14 00:47:20;;;;;;;4.78;1.70;;;28.10;37.50;;;;;;5070680;28;20482;-53
2021/05/14 00:49:47;;;;;;;4.85;2.05;;;28.10;37.60;;;;;;5072323;28;20505;-53
2021/05/14 00:52:16;;;;;;;4.68;2.20;;;28.10;37.70;;;;;;5072228;28;20083;-53
2021/05/14 00:54:46;;;;;;;5.07;1.67;;;28.10;37.80;;;;;;5072335;28;20055;-53
2021/05/14 00:57:16;;;;;;;6.22;1.98;;;28.00;37.70;;;;;;5071941;28;20090;-53
2021/05/14 00:59:46;;;;;;;4.57;1.63;;;28.00;37.70;;;;;;5071880;28;20033;-53
2021/05/14 01:02:12;;;;;;;5.95;1.88;;;28.00;37.80;;;;;;5071316;28;20043;-53
2021/05/14 01:04:39;;;;;;;5.93;2.30;;;28.00;37.80;;;;;;5072036;28;20132;-53
2021/05/14 01:07:06;;;;;;;5.45;1.90;;;28.00;38.50;;;;;;5071811;28;20033;-53
2021/05/14 01:09:38;;;;;;;6.70;1.70;;;28.00;37.90;;;;;;5070353;28;20029;-54
2021/05/14 01:12:04;;;;;;;5.22;1.83;;;28.00;38.00;;;;;;5071758;28;20040;-53
2021/05/14 01:14:30;;;;;;;5.97;1.67;;;27.90;37.90;;;;;;5071358;28;20028;-53
2021/05/14 01:16:58;;;;;;;5.85;1.75;;;27.90;37.90;;;;;;5071705;28;20028;-53
2021/05/14 01:19:24;;;;;;;5.60;1.88;;;27.90;38.10;;;;;;5071719;28;20056;-53
2021/05/14 01:21:50;;;;;;;5.53;1.98;;;27.90;38.70;;;;;;5071677;28;20083;-53
2021/05/14 01:24:17;;;;;;;3.33;1.60;;;27.90;38.10;;;;;;5071823;28;20095;-54
2021/05/14 01:26:43;;;;;;;3.33;1.65;;;27.90;38.10;;;;;;5070124;28;20036;-54
2021/05/14 01:29:11;;;;;;;5.00;1.90;;;27.90;38.20;;;;;;5071606;28;20115;-54
2021/05/14 01:31:38;;;;;;;4.80;1.73;;;27.80;38.10;;;;;;5072102;28;20055;-54
2021/05/14 01:34:07;;;;;;;4.53;2.03;;;27.80;38.20;;;;;;5071983;28;20095;-54
2021/05/14 01:36:39;;;;;;;6.03;2.15;;;27.80;38.20;;;;;;5071393;28;20040;-54
2021/05/14 01:39:11;;;;;;;3.80;1.63;;;27.80;38.30;;;;;;5071609;28;20532;-54
2021/05/14 01:41:37;;;;;;;4.00;1.75;;;27.80;38.40;;;;;;5071317;28;20040;-53
2021/05/14 01:44:04;;;;;;;5.13;1.45;;;27.80;38.40;;;;;;5071257;28;20043;-54
2021/05/14 01:46:30;;;;;;;7.53;1.63;;;27.80;38.40;;;;;;5071083;28;20035;-54
2021/05/14 01:48:56;;;;;;;7.10;1.77;;;27.80;38.40;;;;;;5070978;28;20028;-54
2021/05/14 01:51:23;;;;;;;5.75;2.08;;;27.80;38.50;;;;;;5071246;28;20043;-54
2021/05/14 01:53:50;;;;;;;3.53;1.40;;;27.80;38.50;;;;;;5085298;28;20041;-53
2021/05/14 01:56:17;;;;;;;4.47;1.60;;;27.80;38.60;;;;;;5072777;28;20036;-53
2021/05/14 01:58:43;;;;;;;4.30;1.80;;;27.70;38.50;;;;;;5076974;28;20482;-54
2021/05/14 02:01:09;;;;;;;4.03;1.17;;;27.70;38.50;;;;;;5070706;28;20025;-53
2021/05/14 02:03:35;;;;;;;7.32;1.90;;;27.70;38.60;;;;;;5071050;28;20032;-54
2021/05/14 02:06:01;;;;;;;6.80;1.70;;;27.70;38.60;;;;;;5070798;28;20762;-54
2021/05/14 02:08:27;;;;;;;5.32;1.83;;;27.70;38.60;;;;;;5070718;28;20132;-54
2021/05/14 02:10:54;;;;;;;4.65;1.60;;;27.70;38.70;;;;;;5070829;28;20121;-54
2021/05/14 02:13:20;;;;;;;5.05;1.75;;;27.70;38.70;;;;;;5072616;28;20044;-54
2021/05/14 02:15:46;;;;;;;3.80;1.50;;;27.60;38.70;;;;;;5072789;28;20169;-54
2021/05/14 02:18:12;;;;;;;4.28;1.33;;;27.60;38.70;;;;;;5071991;28;20115;-54
2021/05/14 02:20:38;;;;;;;4.45;1.88;;;27.60;38.70;;;;;;5070662;28;20051;-53
2021/05/14 02:23:04;;;;;;;4.32;1.40;;;27.60;38.80;;;;;;5070552;28;20032;-53
2021/05/14 02:25:30;;;;;;;7.18;1.77;;;27.60;38.80;;;;;;5070359;28;20039;-54
2021/05/14 02:27:56;;;;;;;3.35;1.58;;;27.60;38.80;;;;;;5050919;28;20481;-54
2021/05/14 02:30:22;;;;;;;4.88;1.63;;;27.60;38.90;;;;;;5070359;28;20146;-54
2021/05/14 02:32:48;;;;;;;5.35;1.95;;;27.60;38.90;;;;;;5070220;28;20039;-54
2021/05/14 02:35:15;;;;;;;4.50;1.73;;;27.60;38.90;;;;;;5070225;28;20471;-53
2021/05/14 02:37:42;;;;;;;5.43;1.45;;;27.50;39.00;;;;;;5070305;28;20047;-54
2021/05/14 02:40:09;;;;;;;4.88;1.30;;;27.50;39.00;;;;;;5068419;28;20056;-54
2021/05/14 02:42:35;;;;;;;4.22;1.52;;;27.50;39.00;;;;;;5069921;28;20094;-54
2021/05/14 02:45:02;;;;;;;2.78;1.40;;;27.50;39.00;;;;;;5069968;28;20032;-53
2021/05/14 02:47:28;;;;;;;6.45;1.50;;;27.50;39.00;;;;;;5070058;28;20032;-53
2021/05/14 02:49:54;;;;;;;2.53;1.08;;;27.50;39.00;;;;;;5069293;28;20059;-54
2021/05/14 02:52:20;;;;;;;4.68;1.30;;;27.50;39.10;;;;;;5069991;28;20123;-54
2021/05/14 02:54:46;;;;;;;3.75;1.75;;;27.50;39.10;;;;;;5069998;28;20028;-54
2021/05/14 02:57:12;;;;;;;3.75;1.60;;;27.40;39.10;;;;;;5069927;28;20055;-54
2021/05/14 02:59:38;;;;;;;3.25;1.17;;;27.40;39.10;;;;;;5069140;28;20099;-53
2021/05/14 03:02:07;;;;;;;4.35;1.67;;;27.40;39.10;;;;;;5069734;28;20054;-54
2021/05/14 03:04:33;;;;;;;2.63;1.02;;;27.40;39.10;;;;;;5068079;28;20063;-53
2021/05/14 03:07:01;;;;;;;3.97;1.25;;;27.30;39.10;;;;;;5069387;28;20074;-54
2021/05/14 03:09:27;;;;;;;4.18;1.48;;;27.40;39.20;;;;;;5068457;28;20055;-53
2021/05/14 03:11:53;;;;;;;3.35;1.52;;;27.30;39.20;;;;;;5050575;28;20040;-54
2021/05/14 03:14:20;;;;;;;2.03;1.02;;;27.30;39.20;;;;;;5068749;28;20477;-53
2021/05/14 03:16:46;;;;;;;2.88;1.00;;;27.40;39.30;;;;;;5069158;28;20028;-57
2021/05/14 03:19:12;;;;;;;1.98;0.90;;;27.40;39.30;;;;;;5069855;28;20086;-57
2021/05/14 03:21:38;;;;;;;2.30;1.00;;;27.30;39.20;;;;;;5069794;28;21452;-57
2021/05/14 03:24:04;;;;;;;3.35;0.95;;;27.30;39.20;;;;;;5069429;28;20477;-58
2021/05/14 03:26:30;;;;;;;2.60;1.20;;;27.30;39.30;;;;;;5069413;28;20028;-57
2021/05/14 03:28:56;;;;;;;2.22;0.95;;;27.30;39.30;;;;;;5069824;28;20050;-57
2021/05/14 03:31:22;;;;;;;2.67;0.93;;;27.20;39.30;;;;;;5085010;28;20064;-57
2021/05/14 03:33:49;;;;;;;2.78;0.80;;;27.20;39.30;;;;;;5069990;28;20068;-57
2021/05/14 03:36:20;;;;;;;2.35;1.05;;;27.20;39.40;;;;;;5069371;28;20041;-57
2021/05/14 03:38:47;;;;;;;2.38;0.90;;;27.30;39.40;;;;;;5069456;28;20052;-57
2021/05/14 03:43:46;;;;;;;0.82;0.70;;;27.20;39.40;;;;;;5069913;28;20432;-58
2021/05/14 03:46:12;;;;;;;2.55;0.90;;;27.20;39.40;;;;;;5069518;28;20064;-58
2021/05/14 03:48:38;;;;;;;1.80;0.93;;;27.20;39.50;;;;;;5069763;28;20129;-57
2021/05/14 03:51:04;;;;;;;1.75;0.75;;;27.20;39.50;;;;;;5069458;28;20498;-58
2021/05/14 03:53:30;;;;;;;2.00;1.20;;;27.20;39.60;;;;;;5051521;28;20035;-57
2021/05/14 03:55:56;;;;;;;3.05;1.17;;;27.20;39.60;;;;;;5069535;28;20032;-57
2021/05/14 03:58:22;;;;;;;4.15;1.55;;;27.20;39.70;;;;;;5069625;28;20067;-58
2021/05/14 04:00:49;;;;;;;2.17;0.93;;;27.20;39.80;;;;;;5069506;28;20040;-58
2021/05/14 04:03:16;;;;;;;3.33;1.10;;;27.10;39.70;;;;;;5069428;28;20048;-58
2021/05/14 04:05:42;;;;;;;3.03;1.23;;;27.10;39.80;;;;;;5068945;28;20081;-57
2021/05/14 04:08:10;;;;;;;3.53;0.98;;;27.10;39.90;;;;;;5068115;28;20024;-57
2021/05/14 04:15:47;;;;;;;3.30;1.25;;;27.10;40.10;;;;;;5073316;28;20758;-58
2021/05/14 04:18:13;;;;;;;4.15;1.45;;;27.10;40.20;;;;;;5073646;28;20186;-57
2021/05/14 04:20:39;;;;;;;4.32;1.42;;;27.00;40.10;;;;;;5073578;28;20063;-57
2021/05/14 04:23:05;;;;;;;2.42;1.10;;;27.00;40.20;;;;;;5073208;28;20347;-58
2021/05/14 04:25:31;;;;;;;3.85;1.08;;;27.00;40.30;;;;;;5073022;28;20047;-57
2021/05/14 04:27:57;;;;;;;2.55;0.95;;;27.00;40.40;;;;;;5073277;28;20398;-57
2021/05/14 04:30:23;;;;;;;1.92;1.02;;;27.00;40.40;;;;;;5072888;28;20478;-57
2021/05/14 04:32:49;;;;;;;2.55;1.10;;;26.90;40.50;;;;;;5073013;28;20059;-58
2021/05/14 04:35:15;;;;;;;3.72;1.27;;;26.90;40.60;;;;;;5073034;28;20051;-57
2021/05/14 04:37:41;;;;;;;3.03;1.20;;;26.90;40.50;;;;;;5072887;28;20033;-57
2021/05/14 04:40:08;;;;;;;3.72;1.30;;;26.90;40.60;;;;;;5049943;28;20055;-57
2021/05/14 04:42:34;;;;;;;1.80;1.05;;;26.90;40.70;;;;;;5052852;28;20036;-58
2021/05/14 04:45:00;;;;;;;3.35;1.45;;;26.90;40.70;;;;;;5052724;28;20045;-57
2021/05/14 04:47:26;;;;;;;5.18;1.50;;;26.80;40.60;;;;;;5052991;28;20048;-57
2021/05/14 04:49:52;;;;;;;3.28;1.00;;;26.80;40.70;;;;;;5052757;28;20478;-57
2021/05/14 04:52:25;;;;;;;4.68;1.65;;;26.90;40.80;;;;;;5052479;28;20029;-58
2021/05/14 04:54:51;;;;;;;3.38;1.20;;;26.80;41.40;;;;;;5051976;28;20037;-58
2021/05/14 04:57:17;;;;;;;3.13;1.45;;;26.90;41.50;;;;;;5060696;28;20029;-57
2021/05/14 04:59:43;;;;;;;7.00;1.52;;;26.80;41.00;;;;;;5059569;28;20403;-57
2021/05/14 05:02:11;;;;;;;3.05;1.30;;;26.80;40.90;;;;;;5058120;28;20056;-57
2021/05/14 05:04:37;;;;;;;2.42;1.23;;;26.80;41.00;;;;;;5052409;28;20526;-58
2021/05/14 05:07:04;;;;;;;3.55;1.20;;;26.80;41.00;;;;;;5052974;28;20071;-57
2021/05/14 05:09:30;;;;;;;2.70;1.10;;;26.80;41.00;;;;;;5052729;28;20119;-58
2021/05/14 05:11:57;;;;;;;3.72;1.40;;;26.80;41.00;;;;;;5045451;28;20090;-58
2021/05/14 05:14:23;;;;;;;3.65;1.15;;;26.80;41.10;;;;;;5051282;28;20067;-58
2021/05/14 05:16:50;;;;;;;7.15;1.58;;;26.80;41.10;;;;;;5042144;28;20475;-57
2021/05/14 05:19:16;;;;;;;5.53;1.45;;;26.80;41.10;;;;;;5054157;28;20048;-57
2021/05/14 05:21:42;;;;;;;4.35;1.20;;;26.70;41.10;;;;;;5052631;28;21809;-56
2021/05/14 05:24:08;;;;;;;3.35;1.42;;;26.70;41.20;;;;;;5052923;28;20037;-57
2021/05/14 05:26:35;;;;;;;2.83;1.10;;;26.70;41.20;;;;;;5052760;28;20033;-60
2021/05/14 05:29:01;;;;;;;2.80;1.13;;;26.70;41.20;;;;;;5052103;28;20037;-57
2021/05/14 05:31:27;;;;;;;2.38;1.10;;;26.70;41.20;;;;;;5053925;28;20057;-56
2021/05/14 05:33:53;;;;;;;4.25;1.30;;;26.70;41.30;;;;;;5052694;28;20037;-57
2021/05/14 05:36:19;;;;;;;2.75;1.20;;;26.70;41.30;;;;;;5053716;28;20380;-57
2021/05/14 05:38:46;;;;;;;5.32;1.73;;;26.70;42.00;;;;;;5051851;28;20053;-57
2021/05/14 05:41:13;;;;;;;3.20;1.52;;;26.70;41.50;;;;;;5051515;28;20064;-57
2021/05/14 05:43:39;;;;;;;2.90;1.20;;;26.70;41.30;;;;;;5052269;28;20052;-57
2021/05/14 05:46:05;;;;;;;4.63;1.45;;;26.70;41.40;;;;;;5051946;28;20029;-57
2021/05/14 05:48:31;;;;;;;4.10;1.50;;;26.70;41.40;;;;;;5052282;28;20479;-57
2021/05/14 05:50:57;;;;;;;3.60;1.45;;;26.60;41.30;;;;;;5052515;28;20048;-57
2021/05/14 05:53:23;;;;;;;2.80;1.25;;;26.70;41.40;;;;;;5050818;28;20138;-57
2021/05/14 05:55:49;;;;;;;5.47;1.58;;;26.60;41.30;;;;;;5052187;28;20029;-58
2021/05/14 05:58:18;;;;;;;5.53;1.35;;;26.60;41.30;;;;;;5052711;28;20033;-57
2021/05/14 06:00:45;;;;;;;4.28;1.40;;;26.60;41.30;;;;;;5052305;28;20048;-58
2021/05/14 06:03:13;;;;;;;4.25;1.60;;;26.60;41.30;;;;;;5052131;28;20425;-58
2021/05/14 06:05:39;;;;;;;6.75;1.60;;;26.70;41.30;;;;;;5047789;28;20088;-58
2021/05/14 06:08:06;;;;;;;6.32;2.22;;;26.60;41.20;;;;;;5050459;28;20041;-58
2021/05/14 06:10:32;;;;;;;4.50;1.77;;;26.70;41.20;;;;;;5050415;28;20060;-59
2021/05/14 06:12:58;;;;;;;30.40;27.23;;;26.70;41.10;;;;;;5050481;28;20061;-58
2021/05/14 06:15:24;;;;;;;44.97;40.22;;;26.70;41.00;;;;;;5050714;28;20098;-58
2021/05/14 06:17:50;;;;;;;48.83;43.92;;;26.70;40.90;;;;;;5051747;28;20094;-58
2021/05/14 06:20:20;;;;;;;36.50;32.50;;;26.70;40.80;;;;;;5051449;28;20116;-58
2021/05/14 06:22:46;;;;;;;19.58;16.52;;;26.70;40.80;;;;;;5051975;28;20117;-58
2021/05/14 06:25:13;;;;;;;11.90;7.65;;;26.70;40.70;;;;;;5050257;28;20044;-58
2021/05/14 06:27:39;;;;;;;4.47;3.28;;;26.70;40.60;;;;;;5051834;28;20471;-58
2021/05/14 06:30:06;;;;;;;5.80;3.28;;;26.70;40.60;;;;;;5050461;28;20470;-58
2021/05/14 06:32:32;;;;;;;7.47;2.97;;;26.60;40.60;;;;;;5050814;28;20033;-58
2021/05/14 06:34:58;;;;;;;4.55;2.47;;;26.60;40.60;;;;;;5051166;28;20045;-58
2021/05/14 06:37:24;;;;;;;3.42;1.85;;;26.60;40.60;;;;;;5051845;28;20428;-57
2021/05/14 06:39:50;;;;;;;4.07;1.67;;;26.60;40.60;;;;;;5036164;28;937292;-57
2021/05/14 06:42:16;;;;;;;18.45;15.05;;;26.60;40.70;;;;;;5068739;28;20041;-58
2021/05/14 06:44:43;;;;;;;22.25;19.73;;;26.60;40.70;;;;;;5061653;28;20036;-58
2021/05/14 06:47:09;;;;;;;12.32;10.98;;;26.60;40.70;;;;;;5062638;28;20052;-57
2021/05/14 06:49:35;;;;;;;11.70;7.47;;;26.60;40.70;;;;;;5052361;28;20048;-58
2021/05/14 06:52:01;;;;;;;5.20;3.15;;;26.60;40.70;;;;;;5034532;28;20390;-58
2021/05/14 06:54:27;;;;;;;5.25;2.75;;;26.60;40.60;;;;;;5052094;28;20033;-58
2021/05/14 06:56:53;;;;;;;8.88;2.47;;;26.60;41.30;;;;;;5034098;28;20045;-58
2021/05/14 06:59:20;;;;;;;5.95;2.65;;;26.60;40.60;;;;;;5052008;28;20067;-58
2021/05/14 07:01:46;;;;;;;3.25;2.00;;;26.60;40.70;;;;;;5051882;28;20041;-58
2021/05/14 07:04:12;;;;;;;4.88;1.67;;;26.50;40.50;;;;;;5052083;28;20455;-58
2021/05/14 07:06:38;;;;;;;6.05;2.13;;;26.60;40.50;;;;;;5057231;28;20025;-58
2021/05/14 07:09:04;;;;;;;7.63;1.98;;;26.50;40.40;;;;;;5059642;28;20087;-58
2021/05/14 07:11:31;;;;;;;2.47;1.05;;;26.50;40.20;;;;;;5033958;28;20037;-58
2021/05/14 07:13:57;;;;;;;7.90;1.10;;;26.50;40.10;;;;;;5051886;28;20493;-57
2021/05/14 07:16:23;;;;;;;4.95;1.00;;;26.50;40.00;;;;;;5051933;28;20055;-56
2021/05/14 07:18:49;;;;;;;3.40;1.25;;;26.50;39.90;;;;;;5051699;28;20044;-56
2021/05/14 07:21:15;;;;;;;5.40;1.30;;;26.50;39.90;;;;;;5033833;28;20406;-56
2021/05/14 07:23:41;;;;;;;2.38;0.95;;;26.50;39.80;;;;;;5051913;28;20037;-55
2021/05/14 07:26:08;;;;;;;2.67;1.10;;;26.50;39.70;;;;;;5051709;28;20028;-56
2021/05/14 07:28:34;;;;;;;5.90;2.75;;;26.50;39.70;;;;;;5051941;28;20032;-55
2021/05/14 07:31:00;;;;;;;8.73;5.88;;;26.50;39.40;;;;;;5051658;28;20048;-56
2021/05/14 07:33:26;;;;;;;11.18;5.45;;;26.50;39.40;;;;;;5052146;28;20111;-57
2021/05/14 07:35:52;;;;;;;10.85;8.10;;;26.50;39.40;;;;;;5052173;28;20064;-56
2021/05/14 07:38:19;;;;;;;12.68;10.52;;;26.50;39.40;;;;;;5051591;28;20069;-56
2021/05/14 07:40:46;;;;;;;13.68;7.30;;;26.50;39.40;;;;;;5051693;28;20460;-56
2021/05/14 07:43:12;;;;;;;7.80;6.03;;;26.60;39.40;;;;;;5052010;28;20037;-57
2021/05/14 07:45:37;;;;;;;9.02;5.88;;;26.50;39.30;;;;;;5057493;28;20078;-57
2021/05/14 07:48:05;;;;;;;6.15;5.00;;;26.60;39.40;;;;;;5058900;28;20483;-57
2021/05/14 07:50:32;;;;;;;4.43;3.80;;;26.70;39.40;;;;;;5058829;28;20043;-57
2021/05/14 07:52:58;;;;;;;5.00;2.50;;;26.70;39.40;;;;;;5057585;28;20041;-58
2021/05/14 07:55:24;;;;;;;6.28;2.10;;;26.70;39.20;;;;;;5057758;28;20124;-57
2021/05/14 07:57:50;;;;;;;4.97;1.70;;;26.70;39.10;;;;;;5057755;28;20024;-57
2021/05/14 08:00:16;;;;;;;6.82;1.63;;;26.70;38.90;;;;;;5057751;28;20175;-59
2021/05/14 08:02:42;;;;;;;4.93;1.50;;;26.80;38.90;;;;;;5057790;28;20062;-58
2021/05/14 08:05:09;;;;;;;4.88;1.70;;;26.80;38.80;;;;;;5057776;28;20087;-58
2021/05/14 08:07:35;;;;;;;15.18;13.23;;;26.80;38.60;;;;;;5040027;28;20033;-57
2021/05/14 08:10:01;;;;;;;18.00;13.88;;;26.80;38.50;;;;;;5039982;28;20364;-58
2021/05/14 08:12:27;;;;;;;6.68;5.80;;;26.80;38.40;;;;;;5057949;28;20029;-58
2021/05/14 08:14:55;;;;;;;6.78;5.35;;;26.90;38.30;;;;;;5076166;28;20143;-58
2021/05/14 08:17:21;;;;;;;4.60;3.40;;;26.90;38.30;;;;;;5077920;28;20032;-57
2021/05/14 08:19:47;;;;;;;2.97;2.40;;;26.90;38.30;;;;;;5059833;28;20040;-58
2021/05/14 08:22:13;;;;;;;3.50;2.20;;;26.90;38.30;;;;;;5077850;28;20091;-57
2021/05/14 08:24:39;;;;;;;3.75;1.83;;;26.90;38.20;;;;;;5077987;28;20040;-57
2021/05/14 08:27:06;;;;;;;7.53;2.75;;;26.90;38.20;;;;;;5059682;28;20040;-58
2021/05/14 08:29:32;;;;;;;14.85;12.38;;;27.00;38.20;;;;;;5079091;28;20035;-58
2021/05/14 08:31:58;;;;;;;12.55;8.68;;;27.00;38.20;;;;;;5078173;28;20036;-57
2021/05/14 08:34:24;;;;;;;11.98;7.13;;;27.00;38.10;;;;;;5078037;28;20118;-56
2021/05/14 08:36:50;;;;;;;12.98;10.00;;;27.10;38.20;;;;;;5078136;28;20044;-57
2021/05/14 08:39:18;;;;;;;10.18;8.70;;;27.10;38.20;;;;;;5077985;28;20053;-56
2021/05/14 08:41:44;;;;;;;5.13;4.25;;;27.10;38.10;;;;;;5078066;28;20124;-56
2021/05/14 08:44:10;;;;;;;4.95;2.42;;;27.20;37.90;;;;;;5078503;28;20052;-59
2021/05/14 08:46:36;;;;;;;2.58;1.70;;;27.20;37.60;;;;;;5078648;28;20036;-58
2021/05/14 08:49:04;;;;;;;3.80;2.55;;;27.20;37.40;;;;;;5078770;28;20051;-58
2021/05/14 08:51:30;;;;;;;3.10;1.90;;;27.20;37.40;;;;;;5078517;28;20535;-59
2021/05/14 08:54:05;;;;;;;3.08;1.70;;;27.20;37.50;;;;;;5078445;28;20154;-59
2021/05/14 08:56:32;;;;;;;4.70;2.00;;;27.20;37.30;;;;;;5075682;28;20039;-59
2021/05/14 08:58:59;;;;;;;3.92;2.00;;;27.20;37.40;;;;;;5075385;28;20048;-59
2021/05/14 09:01:26;;;;;;;4.38;1.58;;;27.20;37.40;;;;;;5075097;28;20091;-59
2021/05/14 09:04:16;;;;;;;21.45;18.85;;;27.30;37.40;;;;;;5075266;28;20531;-59
2021/05/14 09:06:43;;;;;;;29.55;26.42;;;27.30;37.50;;;;;;5075286;28;20033;-59
2021/05/14 09:09:11;;;;;;;16.92;12.98;;;27.40;37.30;;;;;;5075019;28;20036;-59
2021/05/14 09:11:52;;;;;;;9.68;6.45;;;27.30;37.80;;;;;;5075200;28;20041;-60
2021/05/14 09:14:38;;;;;;;6.85;4.28;;;27.40;37.20;;;;;;5075082;28;20389;-59
2021/05/14 09:17:13;;;;;;;6.68;2.33;;;27.40;37.20;;;;;;5074746;28;20438;-58
2021/05/14 09:19:44;;;;;;;11.52;3.08;;;27.40;37.00;;;;;;5074006;28;20045;-58
2021/05/14 09:22:11;;;;;;;8.80;2.33;;;27.50;37.10;;;;;;5074136;28;20367;-58
2021/05/14 09:24:38;;;;;;;20.95;18.10;;;27.50;37.10;;;;;;5074168;28;20371;-58
2021/05/14 09:27:23;;;;;;;24.48;21.38;;;27.60;37.20;;;;;;5056014;28;20060;-58
2021/05/14 09:29:50;;;;;;;17.67;9.35;;;27.60;37.10;;;;;;5073666;28;20135;-58
2021/05/14 09:32:30;;;;;;;7.60;6.78;;;27.60;36.90;;;;;;5074054;28;20041;-58
2021/05/14 09:34:58;;;;;;;11.90;9.57;;;27.60;37.00;;;;;;5073554;28;20482;-58
2021/05/14 09:37:25;;;;;;;10.02;8.13;;;27.70;37.00;;;;;;5055937;28;20362;-58
2021/05/14 09:40:12;;;;;;;10.60;8.68;;;27.70;36.90;;;;;;5073467;28;20056;-58
2021/05/14 09:42:38;;;;;;;11.93;9.73;;;27.70;36.90;;;;;;5073269;28;20041;-58
2021/05/14 09:45:27;;;;;;;9.27;7.55;;;27.70;36.70;;;;;;5055514;28;20040;-58
2021/05/14 09:48:01;;;;;;;8.13;4.43;;;27.80;36.80;;;;;;5073153;28;20485;-58
2021/05/14 09:50:37;;;;;;;9.27;3.28;;;27.80;36.50;;;;;;5073143;28;20124;-58
2021/05/14 09:53:12;;;;;;;8.88;2.90;;;27.80;36.50;;;;;;5072747;28;20098;-59
2021/05/14 09:55:44;;;;;;;11.88;3.92;;;27.90;36.80;;;;;;5072704;28;20531;-57
2021/05/14 09:58:18;;;;;;;6.72;2.05;;;27.90;37.70;;;;;;5073188;28;20427;-55
2021/05/14 10:00:44;;;;;;;5.03;2.03;;;27.90;37.20;;;;;;5072938;28;20588;-55
2021/05/14 10:03:11;;;;;;;5.22;1.95;;;28.00;37.20;;;;;;5072509;28;20113;-55
2021/05/14 10:05:38;;;;;;;4.22;1.90;;;28.00;37.60;;;;;;5071804;28;20064;-55
2021/05/14 10:08:06;;;;;;;11.18;4.32;;;28.00;38.00;;;;;;5072208;28;20028;-54
2021/05/14 10:10:35;;;;;;;6.55;3.88;;;28.10;37.50;;;;;;5072104;28;20427;-55
2021/05/14 10:13:02;;;;;;;5.57;2.90;;;28.10;37.30;;;;;;5072209;28;20072;-56
2021/05/14 10:15:28;;;;;;;6.18;2.75;;;28.20;37.20;;;;;;5072283;28;20486;-56
2021/05/14 10:17:56;;;;;;;5.68;2.13;;;28.20;37.00;;;;;;5071612;28;20052;-56
2021/05/14 10:20:29;;;;;;;4.07;1.50;;;28.20;36.60;;;;;;5070919;28;20098;-52
2021/05/14 10:22:58;;;;;;;4.82;1.48;;;28.20;36.00;;;;;;5071461;28;20440;-53
2021/05/14 10:25:44;;;;;;;7.30;2.97;;;28.20;36.10;;;;;;5070811;28;20492;-53
2021/05/14 10:28:24;;;;;;;5.55;3.40;;;28.20;36.40;;;;;;5070607;28;20028;-54
2021/05/14 10:31:09;;;;;;;;;;;28.30;36.10;;;;;;5071281;28;20039;-57
2021/05/14 10:33:57;;;;;;;6.03;3.72;;;28.30;36.70;;;;;;5070561;28;20341;-55
2021/05/14 10:36:32;;;;;;;6.03;2.95;;;28.40;36.30;;;;;;5070828;28;20079;-56
2021/05/14 10:39:05;;;;;;;4.57;2.17;;;28.40;36.10;;;;;;5070928;28;20505;-55
2021/05/14 10:41:32;;;;;;;5.38;1.70;;;28.50;35.80;;;;;;5071169;28;20051;-56
2021/05/14 10:43:59;;;;;;;5.43;1.90;;;28.50;35.80;;;;;;5070544;28;20033;-56
2021/05/14 10:46:29;;;;;;;12.18;5.97;;;28.50;35.70;;;;;;5070083;28;20044;-57
2021/05/14 10:49:05;;;;;;;15.98;14.40;;;28.60;35.60;;;;;;5070259;28;20033;-53
2021/05/14 10:51:46;;;;;;;14.90;11.40;;;28.60;35.60;;;;;;5070528;28;20087;-56
2021/05/14 10:54:41;;;;;;;14.18;6.78;;;28.70;35.70;;;;;;5069818;28;20040;-56
2021/05/14 10:57:08;;;;;;;7.00;3.40;;;28.70;35.40;;;;;;5070086;28;20152;-55
2021/05/14 10:59:39;;;;;;;7.07;2.28;;;28.80;35.00;;;;;;5070145;28;20094;-55
2021/05/14 11:02:29;;;;;;;11.13;2.58;;;28.90;34.80;;;;;;5070127;28;20365;-55
2021/05/14 11:04:59;;;;;;;;;;;28.90;34.90;;;;;;5070798;28;20450;-53
2021/05/14 11:07:39;;;;;;;3.55;1.45;;;29.00;35.50;;;;;;5069838;28;19936;-52
2021/05/14 11:10:15;;;;;;;9.00;2.47;;;29.00;34.60;;;;;;5069615;28;20029;-54
2021/05/14 11:12:42;;;;;;;5.72;1.80;;;29.10;34.70;;;;;;5069846;28;20082;-54
2021/05/14 11:15:14;;;;;;;10.15;1.88;;;29.10;34.40;;;;;;5051840;28;20063;-55
2021/05/14 11:17:40;;;;;;;5.13;1.80;;;29.10;33.90;;;;;;5069689;28;20470;-55
2021/05/14 11:20:21;;;;;;;4.50;1.30;;;29.20;33.90;;;;;;5068747;28;20068;-54
2021/05/14 11:22:47;;;;;;;5.55;1.55;;;29.20;33.70;;;;;;5070001;28;20534;-54
2021/05/14 11:25:21;;;;;;;4.00;1.70;;;29.30;33.70;;;;;;5070272;28;20047;-54
2021/05/14 11:27:51;;;;;;;3.97;2.05;;;29.30;33.40;;;;;;5069276;28;20044;-53
2021/05/14 11:30:17;;;;;;;;;;;29.40;33.40;;;;;;5069783;28;20025;-53
2021/05/14 11:32:49;;;;;;;60.78;24.38;;;29.40;34.10;;;;;;5070148;28;20031;-54
2021/05/14 11:35:23;;;;;;;86.40;48.50;;;29.50;33.50;;;;;;5069546;28;20047;-53
2021/05/14 11:37:56;;;;;;;101.60;54.13;;;29.50;33.50;;;;;;5069496;28;20564;-53
2021/05/14 11:40:33;;;;;;;83.60;45.53;;;29.60;33.60;;;;;;5069134;28;20056;-53
2021/05/14 11:43:06;;;;;;;41.95;24.10;;;29.60;33.50;;;;;;5069153;28;20033;-53
2021/05/14 11:45:37;;;;;;;35.15;20.77;;;29.60;33.00;;;;;;5069566;28;20044;-54
2021/05/14 11:48:10;;;;;;;24.13;14.68;;;29.70;33.10;;;;;;5069210;28;20050;-54
2021/05/14 11:50:47;;;;;;;15.35;7.18;;;29.70;33.10;;;;;;5069162;28;20032;-54
2021/05/14 11:53:14;;;;;;;6.85;3.75;;;29.80;32.80;;;;;;5069886;28;20048;-55
2021/05/14 11:55:43;;;;;;;5.65;2.60;;;29.80;32.70;;;;;;5069632;28;20150;-54
2021/05/14 11:58:10;;;;;;;8.57;2.58;;;29.80;32.20;;;;;;5069373;28;20028;-54
2021/05/14 12:00:42;;;;;;;4.07;1.73;;;29.90;32.00;;;;;;5068841;28;20492;-55
2021/05/14 12:03:10;;;;;;;4.13;1.80;;;29.90;31.50;;;;;;5069210;28;20124;-55
2021/05/14 12:05:40;;;;;;;4.43;1.25;;;29.90;31.70;;;;;;5068903;28;20029;-55
2021/05/14 12:08:16;;;;;;;4.85;1.77;;;29.90;31.60;;;;;;5068956;28;20033;-55
2021/05/14 12:11:01;;;;;;;6.03;2.08;;;30.00;31.50;;;;;;5068839;28;20040;-55
2021/05/14 12:13:31;;;;;;;4.95;1.77;;;30.00;31.80;;;;;;5069013;28;20033;-55
2021/05/14 12:16:09;;;;;;;4.18;1.60;;;30.10;31.40;;;;;;5069345;28;20124;-55
2021/05/14 12:18:56;;;;;;;5.55;1.60;;;30.10;31.30;;;;;;5050875;28;20144;-54
2021/05/14 12:21:26;;;;;;;11.27;3.35;;;30.20;31.40;;;;;;5068906;28;20097;-53
2021/05/14 12:23:54;;;;;;;5.85;1.60;;;30.20;31.40;;;;;;5069012;28;20032;-52
2021/05/14 12:26:20;;;;;;;3.67;1.40;;;30.20;31.40;;;;;;5068715;28;20029;-53
2021/05/14 12:28:48;;;;;;;8.40;2.15;;;30.20;31.30;;;;;;5068660;28;20025;-53
2021/05/14 12:31:15;;;;;;;5.97;2.38;;;30.20;31.30;;;;;;5069580;28;20521;-53
2021/05/14 12:34:01;;;;;;;5.68;2.10;;;30.20;31.40;;;;;;5055606;28;20028;-52
2021/05/14 12:36:32;;;;;;;4.60;3.20;;;30.20;31.50;;;;;;5073325;28;20044;-53
2021/05/14 12:39:11;;;;;;;4.45;2.42;;;30.20;31.30;;;;;;5073355;28;20051;-53
2021/05/14 12:41:42;;;;;;;6.63;2.30;;;30.20;31.50;;;;;;5073180;28;20040;-53
2021/05/14 12:44:20;;;;;;;4.53;2.42;;;30.20;31.60;;;;;;5073359;28;20478;-53
2021/05/14 12:47:09;;;;;;;5.15;2.65;;;30.20;31.50;;;;;;5073549;28;20554;-53
2021/05/14 12:49:42;;;;;;;6.80;2.05;;;30.20;31.80;;;;;;5073527;28;20110;-53
2021/05/14 12:52:14;;;;;;;6.18;2.28;;;30.10;31.50;;;;;;5054916;28;20047;-53
2021/05/14 12:54:52;;;;;;;6.65;2.70;;;30.10;31.60;;;;;;5055311;28;20040;-53
2021/05/14 12:57:52;;;;;;;6.03;2.63;;;30.10;31.80;;;;;;5073180;28;20083;-53
2021/05/14 13:00:26;;;;;;;5.07;1.90;;;30.20;31.90;;;;;;5050383;28;20478;-54